sensor_id;sensor_type;location;lat;lon;timestamp;temperature;humidity
62464;SHT31;48512;48.552;9.380;2023-07-24T00:00:33;21.94;57.87
62464;SHT31;48512;48.552;9.380;2023-07-24T00:03:02;21.91;57.65
62464;SHT31;48512;48.552;9.380;2023-07-24T00:05:28;21.87;57.56
62464;SHT31;48512;48.552;9.380;2023-07-24T00:07:55;21.84;57.65
62464;SHT31;48512;48.552;9.380;2023-07-24T00:10:21;21.84;57.73
62464;SHT31;48512;48.552;9.380;2023-07-24T00:12:47;21.73;58.19
62464;SHT31;48512;48.552;9.380;2023-07-24T00:15:13;21.60;58.69
62464;SHT31;48512;48.552;9.380;2023-07-24T00:17:39;21.62;58.64
62464;SHT31;48512;48.552;9.380;2023-07-24T00:20:06;21.55;58.64
62464;SHT31;48512;48.552;9.380;2023-07-24T00:22:32;21.36;58.94
62464;SHT31;48512;48.552;9.380;2023-07-24T00:24:59;21.29;58.81
62464;SHT31;48512;48.552;9.380;2023-07-24T00:27:25;21.26;58.76
62464;SHT31;48512;48.552;9.380;2023-07-24T00:29:51;21.31;58.90
62464;SHT31;48512;48.552;9.380;2023-07-24T00:32:17;21.29;58.97
62464;SHT31;48512;48.552;9.380;2023-07-24T00:34:43;21.41;58.58
62464;SHT31;48512;48.552;9.380;2023-07-24T00:37:10;21.22;59.18
62464;SHT31;48512;48.552;9.380;2023-07-24T00:39:36;21.03;59.73
62464;SHT31;48512;48.552;9.380;2023-07-24T00:42:02;20.92;60.44
62464;SHT31;48512;48.552;9.380;2023-07-24T00:44:28;20.82;60.94
62464;SHT31;48512;48.552;9.380;2023-07-24T00:46:55;20.76;61.85
62464;SHT31;48512;48.552;9.380;2023-07-24T00:49:21;20.71;61.79
62464;SHT31;48512;48.552;9.380;2023-07-24T00:51:47;20.84;61.23
62464;SHT31;48512;48.552;9.380;2023-07-24T00:54:15;20.74;61.51
62464;SHT31;48512;48.552;9.380;2023-07-24T00:56:43;20.65;62.19
62464;SHT31;48512;48.552;9.380;2023-07-24T00:59:10;20.49;62.84
62464;SHT31;48512;48.552;9.380;2023-07-24T01:01:37;20.16;64.03
62464;SHT31;48512;48.552;9.380;2023-07-24T01:04:05;20.03;64.58
62464;SHT31;48512;48.552;9.380;2023-07-24T01:06:32;19.96;64.85
62464;SHT31;48512;48.552;9.380;2023-07-24T01:08:59;20.06;64.51
62464;SHT31;48512;48.552;9.380;2023-07-24T01:11:32;20.20;64.11
62464;SHT31;48512;48.552;9.380;2023-07-24T01:14:10;20.05;64.80
62464;SHT31;48512;48.552;9.380;2023-07-24T01:16:41;20.14;64.03
62464;SHT31;48512;48.552;9.380;2023-07-24T01:19:19;20.28;63.46
62464;SHT31;48512;48.552;9.380;2023-07-24T01:24:30;19.89;64.94
62464;SHT31;48512;48.552;9.380;2023-07-24T01:26:59;19.76;65.44
62464;SHT31;48512;48.552;9.380;2023-07-24T01:29:25;19.51;66.15
62464;SHT31;48512;48.552;9.380;2023-07-24T01:31:51;19.41;66.52
62464;SHT31;48512;48.552;9.380;2023-07-24T01:34:18;19.34;66.87
62464;SHT31;48512;48.552;9.380;2023-07-24T01:36:46;19.10;67.73
62464;SHT31;48512;48.552;9.380;2023-07-24T01:39:13;19.03;67.87
62464;SHT31;48512;48.552;9.380;2023-07-24T01:41:40;19.10;68.12
62464;SHT31;48512;48.552;9.380;2023-07-24T01:44:07;19.10;67.87
62464;SHT31;48512;48.552;9.380;2023-07-24T01:46:33;19.10;67.56
62464;SHT31;48512;48.552;9.380;2023-07-24T01:49:00;19.04;67.85
62464;SHT31;48512;48.552;9.380;2023-07-24T01:51:26;18.90;68.42
62464;SHT31;48512;48.552;9.380;2023-07-24T01:53:52;18.99;68.06
62464;SHT31;48512;48.552;9.380;2023-07-24T01:56:18;18.90;68.35
62464;SHT31;48512;48.552;9.380;2023-07-24T01:58:44;18.75;68.97
62464;SHT31;48512;48.552;9.380;2023-07-24T02:01:10;18.60;69.50
62464;SHT31;48512;48.552;9.380;2023-07-24T02:03:36;18.60;69.86
62464;SHT31;48512;48.552;9.380;2023-07-24T02:06:05;18.73;69.14
62464;SHT31;48512;48.552;9.380;2023-07-24T02:08:31;18.82;68.77
62464;SHT31;48512;48.552;9.380;2023-07-24T02:10:57;18.77;68.96
62464;SHT31;48512;48.552;9.380;2023-07-24T02:13:25;18.82;68.64
62464;SHT31;48512;48.552;9.380;2023-07-24T02:15:51;18.86;68.84
62464;SHT31;48512;48.552;9.380;2023-07-24T02:18:19;18.70;69.34
62464;SHT31;48512;48.552;9.380;2023-07-24T02:20:51;18.63;69.54
62464;SHT31;48512;48.552;9.380;2023-07-24T02:23:18;18.58;69.94
62464;SHT31;48512;48.552;9.380;2023-07-24T02:25:44;18.51;70.03
62464;SHT31;48512;48.552;9.380;2023-07-24T02:28:10;18.41;70.47
62464;SHT31;48512;48.552;9.380;2023-07-24T02:30:39;18.34;70.89
62464;SHT31;48512;48.552;9.380;2023-07-24T02:33:05;18.27;70.65
62464;SHT31;48512;48.552;9.380;2023-07-24T02:35:41;18.38;70.77
62464;SHT31;48512;48.552;9.380;2023-07-24T02:38:07;18.45;70.11
62464;SHT31;48512;48.552;9.380;2023-07-24T02:40:35;18.46;70.37
62464;SHT31;48512;48.552;9.380;2023-07-24T02:43:01;18.76;69.15
62464;SHT31;48512;48.552;9.380;2023-07-24T02:45:27;18.85;68.66
62464;SHT31;48512;48.552;9.380;2023-07-24T02:47:53;18.86;68.59
62464;SHT31;48512;48.552;9.380;2023-07-24T02:50:19;19.00;67.91
62464;SHT31;48512;48.552;9.380;2023-07-24T02:52:46;19.28;67.16
62464;SHT31;48512;48.552;9.380;2023-07-24T02:55:12;19.45;66.75
62464;SHT31;48512;48.552;9.380;2023-07-24T02:57:38;19.51;66.64
62464;SHT31;48512;48.552;9.380;2023-07-24T03:00:05;19.63;66.38
62464;SHT31;48512;48.552;9.380;2023-07-24T03:02:31;19.68;66.19
62464;SHT31;48512;48.552;9.380;2023-07-24T03:04:58;19.72;66.13
62464;SHT31;48512;48.552;9.380;2023-07-24T03:07:24;19.76;66.07
62464;SHT31;48512;48.552;9.380;2023-07-24T03:09:50;19.69;66.27
62464;SHT31;48512;48.552;9.380;2023-07-24T03:12:17;19.79;66.18
62464;SHT31;48512;48.552;9.380;2023-07-24T03:14:43;19.90;66.25
62464;SHT31;48512;48.552;9.380;2023-07-24T03:17:09;19.89;66.40
62464;SHT31;48512;48.552;9.380;2023-07-24T03:19:35;19.92;66.63
62464;SHT31;48512;48.552;9.380;2023-07-24T03:22:02;19.93;66.60
62464;SHT31;48512;48.552;9.380;2023-07-24T03:24:28;19.85;66.93
62464;SHT31;48512;48.552;9.380;2023-07-24T03:26:54;20.01;66.45
62464;SHT31;48512;48.552;9.380;2023-07-24T03:29:20;20.09;66.22
62464;SHT31;48512;48.552;9.380;2023-07-24T03:31:46;20.06;66.36
62464;SHT31;48512;48.552;9.380;2023-07-24T03:34:12;20.10;66.36
62464;SHT31;48512;48.552;9.380;2023-07-24T03:36:39;20.14;66.15
62464;SHT31;48512;48.552;9.380;2023-07-24T03:39:08;20.16;66.20
62464;SHT31;48512;48.552;9.380;2023-07-24T03:41:35;20.19;66.33
62464;SHT31;48512;48.552;9.380;2023-07-24T03:44:01;20.14;66.51
62464;SHT31;48512;48.552;9.380;2023-07-24T03:46:27;20.16;66.56
62464;SHT31;48512;48.552;9.380;2023-07-24T03:48:53;20.14;66.68
62464;SHT31;48512;48.552;9.380;2023-07-24T03:51:19;20.16;66.58
62464;SHT31;48512;48.552;9.380;2023-07-24T03:53:46;20.14;66.56
62464;SHT31;48512;48.552;9.380;2023-07-24T03:56:12;20.17;66.42
62464;SHT31;48512;48.552;9.380;2023-07-24T03:58:38;20.23;66.33
62464;SHT31;48512;48.552;9.380;2023-07-24T04:01:06;20.30;66.18
62464;SHT31;48512;48.552;9.380;2023-07-24T04:03:32;20.31;65.74
62464;SHT31;48512;48.552;9.380;2023-07-24T04:05:59;20.43;65.89
62464;SHT31;48512;48.552;9.380;2023-07-24T04:08:25;20.48;65.54
62464;SHT31;48512;48.552;9.380;2023-07-24T04:10:51;20.45;66.00
62464;SHT31;48512;48.552;9.380;2023-07-24T04:13:18;20.45;65.92
62464;SHT31;48512;48.552;9.380;2023-07-24T04:15:44;20.45;66.04
62464;SHT31;48512;48.552;9.380;2023-07-24T04:18:10;20.47;66.21
62464;SHT31;48512;48.552;9.380;2023-07-24T04:20:37;20.54;66.15
62464;SHT31;48512;48.552;9.380;2023-07-24T04:23:03;20.52;66.02
62464;SHT31;48512;48.552;9.380;2023-07-24T04:25:29;20.45;66.41
62464;SHT31;48512;48.552;9.380;2023-07-24T04:27:55;20.54;66.41
62464;SHT31;48512;48.552;9.380;2023-07-24T04:30:21;20.64;66.14
62464;SHT31;48512;48.552;9.380;2023-07-24T04:32:48;20.64;66.17
62464;SHT31;48512;48.552;9.380;2023-07-24T04:35:14;20.75;65.82
62464;SHT31;48512;48.552;9.380;2023-07-24T04:37:40;20.84;65.70
62464;SHT31;48512;48.552;9.380;2023-07-24T04:40:06;20.92;65.48
62464;SHT31;48512;48.552;9.380;2023-07-24T04:42:33;20.92;65.42
62464;SHT31;48512;48.552;9.380;2023-07-24T04:44:59;20.86;65.77
62464;SHT31;48512;48.552;9.380;2023-07-24T04:47:25;20.91;65.89
62464;SHT31;48512;48.552;9.380;2023-07-24T04:49:51;20.89;66.28
62464;SHT31;48512;48.552;9.380;2023-07-24T04:52:17;20.89;66.48
62464;SHT31;48512;48.552;9.380;2023-07-24T04:54:44;20.93;66.18
62464;SHT31;48512;48.552;9.380;2023-07-24T04:57:10;21.14;65.75
62464;SHT31;48512;48.552;9.380;2023-07-24T04:59:36;21.16;65.93
62464;SHT31;48512;48.552;9.380;2023-07-24T05:02:03;21.16;65.87
62464;SHT31;48512;48.552;9.380;2023-07-24T05:04:29;21.09;66.30
62464;SHT31;48512;48.552;9.380;2023-07-24T05:06:55;21.26;66.20
62464;SHT31;48512;48.552;9.380;2023-07-24T05:09:21;21.22;66.35
62464;SHT31;48512;48.552;9.380;2023-07-24T05:11:47;21.20;66.58
62464;SHT31;48512;48.552;9.380;2023-07-24T05:14:13;21.27;66.21
62464;SHT31;48512;48.552;9.380;2023-07-24T05:16:39;21.33;66.17
62464;SHT31;48512;48.552;9.380;2023-07-24T05:19:06;21.34;66.03
62464;SHT31;48512;48.552;9.380;2023-07-24T05:21:32;21.44;66.29
62464;SHT31;48512;48.552;9.380;2023-07-24T05:23:58;21.44;66.17
62464;SHT31;48512;48.552;9.380;2023-07-24T05:26:24;21.54;66.18
62464;SHT31;48512;48.552;9.380;2023-07-24T05:28:51;21.62;65.94
62464;SHT31;48512;48.552;9.380;2023-07-24T05:31:18;21.60;66.11
62464;SHT31;48512;48.552;9.380;2023-07-24T05:33:44;21.71;65.72
62464;SHT31;48512;48.552;9.380;2023-07-24T05:36:11;21.82;65.10
62464;SHT31;48512;48.552;9.380;2023-07-24T05:38:37;21.99;64.77
62464;SHT31;48512;48.552;9.380;2023-07-24T05:41:03;22.02;64.63
62464;SHT31;48512;48.552;9.380;2023-07-24T05:43:30;22.08;64.63
62464;SHT31;48512;48.552;9.380;2023-07-24T05:45:57;22.06;64.68
62464;SHT31;48512;48.552;9.380;2023-07-24T05:48:24;22.04;64.61
62464;SHT31;48512;48.552;9.380;2023-07-24T05:50:50;22.04;64.84
62464;SHT31;48512;48.552;9.380;2023-07-24T05:53:17;22.12;64.27
62464;SHT31;48512;48.552;9.380;2023-07-24T05:55:43;22.16;64.09
62464;SHT31;48512;48.552;9.380;2023-07-24T05:58:09;22.18;64.14
62464;SHT31;48512;48.552;9.380;2023-07-24T06:00:36;22.08;64.70
62464;SHT31;48512;48.552;9.380;2023-07-24T06:03:03;22.15;64.30
62464;SHT31;48512;48.552;9.380;2023-07-24T06:05:29;22.18;64.41
62464;SHT31;48512;48.552;9.380;2023-07-24T06:07:55;22.20;64.10
62464;SHT31;48512;48.552;9.380;2023-07-24T06:10:21;22.23;64.14
62464;SHT31;48512;48.552;9.380;2023-07-24T06:12:48;22.22;64.07
62464;SHT31;48512;48.552;9.380;2023-07-24T06:15:14;22.23;64.09
62464;SHT31;48512;48.552;9.380;2023-07-24T06:17:40;22.25;63.98
62464;SHT31;48512;48.552;9.380;2023-07-24T06:20:06;22.15;64.35
62464;SHT31;48512;48.552;9.380;2023-07-24T06:22:33;22.23;64.37
62464;SHT31;48512;48.552;9.380;2023-07-24T06:24:59;22.28;64.13
62464;SHT31;48512;48.552;9.380;2023-07-24T06:27:25;22.16;64.61
62464;SHT31;48512;48.552;9.380;2023-07-24T06:29:51;22.26;64.66
62464;SHT31;48512;48.552;9.380;2023-07-24T06:32:17;22.26;64.99
62464;SHT31;48512;48.552;9.380;2023-07-24T06:34:43;22.29;64.66
62464;SHT31;48512;48.552;9.380;2023-07-24T06:37:09;22.40;64.46
62464;SHT31;48512;48.552;9.380;2023-07-24T06:39:36;22.54;64.40
62464;SHT31;48512;48.552;9.380;2023-07-24T06:42:02;22.56;64.72
62464;SHT31;48512;48.552;9.380;2023-07-24T06:44:28;22.64;64.63
62464;SHT31;48512;48.552;9.380;2023-07-24T06:46:54;22.57;65.35
62464;SHT31;48512;48.552;9.380;2023-07-24T06:49:20;22.56;65.81
62464;SHT31;48512;48.552;9.380;2023-07-24T06:51:46;22.42;66.58
62464;SHT31;48512;48.552;9.380;2023-07-24T06:54:13;22.49;66.44
62464;SHT31;48512;48.552;9.380;2023-07-24T06:56:39;22.61;66.51
62464;SHT31;48512;48.552;9.380;2023-07-24T06:59:05;22.74;66.35
62464;SHT31;48512;48.552;9.380;2023-07-24T07:01:31;22.68;66.63
62464;SHT31;48512;48.552;9.380;2023-07-24T07:03:57;22.75;66.16
62464;SHT31;48512;48.552;9.380;2023-07-24T07:06:23;22.71;66.45
62464;SHT31;48512;48.552;9.380;2023-07-24T07:08:50;22.78;66.47
62464;SHT31;48512;48.552;9.380;2023-07-24T07:11:16;22.84;66.56
62464;SHT31;48512;48.552;9.380;2023-07-24T07:13:42;22.88;66.48
62464;SHT31;48512;48.552;9.380;2023-07-24T07:16:08;22.94;66.58
62464;SHT31;48512;48.552;9.380;2023-07-24T07:18:34;23.05;66.24
62464;SHT31;48512;48.552;9.380;2023-07-24T07:21:00;22.97;66.48
62464;SHT31;48512;48.552;9.380;2023-07-24T07:23:27;23.05;66.31
62464;SHT31;48512;48.552;9.380;2023-07-24T07:25:53;22.98;66.37
62464;SHT31;48512;48.552;9.380;2023-07-24T07:28:19;23.00;66.48
62464;SHT31;48512;48.552;9.380;2023-07-24T07:30:45;23.18;65.90
62464;SHT31;48512;48.552;9.380;2023-07-24T07:33:11;23.28;65.43
62464;SHT31;48512;48.552;9.380;2023-07-24T07:35:37;23.18;65.26
62464;SHT31;48512;48.552;9.380;2023-07-24T07:38:04;23.30;64.63
62464;SHT31;48512;48.552;9.380;2023-07-24T07:40:30;23.39;64.32
62464;SHT31;48512;48.552;9.380;2023-07-24T07:42:56;23.63;63.32
62464;SHT31;48512;48.552;9.380;2023-07-24T07:45:23;23.84;63.27
62464;SHT31;48512;48.552;9.380;2023-07-24T07:47:50;23.88;62.96
62464;SHT31;48512;48.552;9.380;2023-07-24T07:50:16;23.98;62.90
62464;SHT31;48512;48.552;9.380;2023-07-24T07:52:42;24.01;62.46
62464;SHT31;48512;48.552;9.380;2023-07-24T07:55:08;24.03;62.63
62464;SHT31;48512;48.552;9.380;2023-07-24T07:57:35;23.87;62.79
62464;SHT31;48512;48.552;9.380;2023-07-24T08:00:03;23.92;63.13
62464;SHT31;48512;48.552;9.380;2023-07-24T08:02:32;23.86;63.20
62464;SHT31;48512;48.552;9.380;2023-07-24T08:05:00;23.86;62.56
62464;SHT31;48512;48.552;9.380;2023-07-24T08:07:26;23.86;62.64
62464;SHT31;48512;48.552;9.380;2023-07-24T08:09:52;23.83;62.85
62464;SHT31;48512;48.552;9.380;2023-07-24T08:12:18;23.87;62.43
62464;SHT31;48512;48.552;9.380;2023-07-24T08:14:44;24.08;60.94
62464;SHT31;48512;48.552;9.380;2023-07-24T08:17:11;24.26;59.41
62464;SHT31;48512;48.552;9.380;2023-07-24T08:19:37;24.47;58.36
62464;SHT31;48512;48.552;9.380;2023-07-24T08:22:03;24.48;57.51
62464;SHT31;48512;48.552;9.380;2023-07-24T08:24:34;24.62;56.43
62464;SHT31;48512;48.552;9.380;2023-07-24T08:27:01;24.62;55.80
62464;SHT31;48512;48.552;9.380;2023-07-24T08:29:27;24.62;57.00
62464;SHT31;48512;48.552;9.380;2023-07-24T08:31:54;24.66;57.20
62464;SHT31;48512;48.552;9.380;2023-07-24T08:34:20;24.53;57.52
62464;SHT31;48512;48.552;9.380;2023-07-24T08:36:46;24.42;57.36
62464;SHT31;48512;48.552;9.380;2023-07-24T08:39:12;24.44;57.46
62464;SHT31;48512;48.552;9.380;2023-07-24T08:41:39;24.52;57.04
62464;SHT31;48512;48.552;9.380;2023-07-24T08:44:07;24.58;57.09
62464;SHT31;48512;48.552;9.380;2023-07-24T08:46:38;24.75;56.64
62464;SHT31;48512;48.552;9.380;2023-07-24T08:49:13;24.75;57.06
62464;SHT31;48512;48.552;9.380;2023-07-24T08:51:41;24.63;57.88
62464;SHT31;48512;48.552;9.380;2023-07-24T08:54:08;24.76;57.35
62464;SHT31;48512;48.552;9.380;2023-07-24T08:56:36;24.47;58.26
62464;SHT31;48512;48.552;9.380;2023-07-24T08:59:03;24.47;58.65
62464;SHT31;48512;48.552;9.380;2023-07-24T09:01:29;24.47;59.25
62464;SHT31;48512;48.552;9.380;2023-07-24T09:03:56;24.34;60.34
62464;SHT31;48512;48.552;9.380;2023-07-24T09:06:22;24.32;60.82
62464;SHT31;48512;48.552;9.380;2023-07-24T09:08:48;24.28;60.44
62464;SHT31;48512;48.552;9.380;2023-07-24T09:11:15;24.15;62.13
62464;SHT31;48512;48.552;9.380;2023-07-24T09:13:42;24.11;61.81
62464;SHT31;48512;48.552;9.380;2023-07-24T09:16:09;24.20;61.87
62464;SHT31;48512;48.552;9.380;2023-07-24T09:18:42;24.26;60.43
62464;SHT31;48512;48.552;9.380;2023-07-24T09:21:09;24.20;60.97
62464;SHT31;48512;48.552;9.380;2023-07-24T09:23:38;24.13;60.92
62464;SHT31;48512;48.552;9.380;2023-07-24T09:26:10;24.28;59.73
62464;SHT31;48512;48.552;9.380;2023-07-24T09:28:36;24.05;60.54
62464;SHT31;48512;48.552;9.380;2023-07-24T09:31:03;23.92;61.78
62464;SHT31;48512;48.552;9.380;2023-07-24T09:33:38;23.96;61.65
62464;SHT31;48512;48.552;9.380;2023-07-24T09:36:06;23.84;62.31
62464;SHT31;48512;48.552;9.380;2023-07-24T09:38:37;23.70;61.48
62464;SHT31;48512;48.552;9.380;2023-07-24T09:41:04;23.70;62.22
62464;SHT31;48512;48.552;9.380;2023-07-24T09:43:30;23.60;63.29
62464;SHT31;48512;48.552;9.380;2023-07-24T09:45:57;23.55;63.45
62464;SHT31;48512;48.552;9.380;2023-07-24T09:48:25;23.45;65.31
62464;SHT31;48512;48.552;9.380;2023-07-24T09:50:56;23.43;64.45
62464;SHT31;48512;48.552;9.380;2023-07-24T09:56:01;23.50;63.04
62464;SHT31;48512;48.552;9.380;2023-07-24T09:58:28;23.41;63.12
62464;SHT31;48512;48.552;9.380;2023-07-24T10:00:56;23.25;63.65
62464;SHT31;48512;48.552;9.380;2023-07-24T10:03:22;23.25;63.57
62464;SHT31;48512;48.552;9.380;2023-07-24T10:05:49;23.21;64.04
62464;SHT31;48512;48.552;9.380;2023-07-24T10:08:17;23.18;64.58
62464;SHT31;48512;48.552;9.380;2023-07-24T10:10:44;23.19;66.24
62464;SHT31;48512;48.552;9.380;2023-07-24T10:13:12;23.18;67.41
62464;SHT31;48512;48.552;9.380;2023-07-24T10:15:44;23.18;67.61
62464;SHT31;48512;48.552;9.380;2023-07-24T10:18:12;23.12;70.14
62464;SHT31;48512;48.552;9.380;2023-07-24T10:20:41;23.07;71.10
62464;SHT31;48512;48.552;9.380;2023-07-24T10:23:09;22.97;70.03
62464;SHT31;48512;48.552;9.380;2023-07-24T10:25:38;22.84;70.63
62464;SHT31;48512;48.552;9.380;2023-07-24T10:28:08;22.83;72.84
62464;SHT31;48512;48.552;9.380;2023-07-24T10:30:37;22.74;72.54
62464;SHT31;48512;48.552;9.380;2023-07-24T10:33:24;22.74;74.01
62464;SHT31;48512;48.552;9.380;2023-07-24T10:35:53;22.74;71.86
62464;SHT31;48512;48.552;9.380;2023-07-24T10:38:33;22.36;72.84
62464;SHT31;48512;48.552;9.380;2023-07-24T10:41:04;22.32;71.07
62464;SHT31;48512;48.552;9.380;2023-07-24T10:46:10;21.99;73.76
62464;SHT31;48512;48.552;9.380;2023-07-24T10:48:36;21.67;76.23
62464;SHT31;48512;48.552;9.380;2023-07-24T10:51:07;21.77;72.73
62464;SHT31;48512;48.552;9.380;2023-07-24T10:53:37;21.55;74.49
62464;SHT31;48512;48.552;9.380;2023-07-24T10:56:04;21.27;76.78
62464;SHT31;48512;48.552;9.380;2023-07-24T10:58:31;21.29;78.15
62464;SHT31;48512;48.552;9.380;2023-07-24T11:00:58;21.41;75.14
62464;SHT31;48512;48.552;9.380;2023-07-24T11:03:25;21.43;76.40
62464;SHT31;48512;48.552;9.380;2023-07-24T11:05:51;21.14;75.61
62464;SHT31;48512;48.552;9.380;2023-07-24T11:08:19;21.05;78.44
62464;SHT31;48512;48.552;9.380;2023-07-24T11:10:49;21.12;77.87
62464;SHT31;48512;48.552;9.380;2023-07-24T11:13:17;21.12;74.07
62464;SHT31;48512;48.552;9.380;2023-07-24T11:15:44;20.99;77.11
62464;SHT31;48512;48.552;9.380;2023-07-24T11:18:10;20.86;77.63
62464;SHT31;48512;48.552;9.380;2023-07-24T11:20:50;20.79;77.40
62464;SHT31;48512;48.552;9.380;2023-07-24T11:23:17;20.76;78.86
62464;SHT31;48512;48.552;9.380;2023-07-24T11:25:44;20.84;77.48
62464;SHT31;48512;48.552;9.380;2023-07-24T11:28:12;20.79;75.69
62464;SHT31;48512;48.552;9.380;2023-07-24T11:30:38;20.75;77.62
62464;SHT31;48512;48.552;9.380;2023-07-24T11:33:07;20.78;76.69
62464;SHT31;48512;48.552;9.380;2023-07-24T11:35:34;21.24;78.65
62464;SHT31;48512;48.552;9.380;2023-07-24T11:38:02;21.22;78.39
62464;SHT31;48512;48.552;9.380;2023-07-24T11:40:40;21.22;77.37
62464;SHT31;48512;48.552;9.380;2023-07-24T11:43:23;21.55;76.28
62464;SHT31;48512;48.552;9.380;2023-07-24T11:45:51;21.99;76.67
62464;SHT31;48512;48.552;9.380;2023-07-24T11:48:22;22.15;77.49
62464;SHT31;48512;48.552;9.380;2023-07-24T11:50:51;22.65;75.10
62464;SHT31;48512;48.552;9.380;2023-07-24T11:53:29;23.08;73.30
62464;SHT31;48512;48.552;9.380;2023-07-24T11:55:58;22.91;72.77
62464;SHT31;48512;48.552;9.380;2023-07-24T11:58:28;22.37;73.15
62464;SHT31;48512;48.552;9.380;2023-07-24T12:00:55;22.68;73.28
62464;SHT31;48512;48.552;9.380;2023-07-24T12:03:24;22.52;72.24
62464;SHT31;48512;48.552;9.380;2023-07-24T12:05:50;22.75;74.86
62464;SHT31;48512;48.552;9.380;2023-07-24T12:08:19;22.91;75.86
62464;SHT31;48512;48.552;9.380;2023-07-24T12:10:47;23.11;74.00
62464;SHT31;48512;48.552;9.380;2023-07-24T12:13:14;23.48;72.67
62464;SHT31;48512;48.552;9.380;2023-07-24T12:15:40;23.80;72.17
62464;SHT31;48512;48.552;9.380;2023-07-24T12:18:07;23.87;68.57
62464;SHT31;48512;48.552;9.380;2023-07-24T12:20:34;23.55;67.72
62464;SHT31;48512;48.552;9.380;2023-07-24T12:23:00;23.37;69.48
62464;SHT31;48512;48.552;9.380;2023-07-24T12:25:26;23.45;68.52
62464;SHT31;48512;48.552;9.380;2023-07-24T12:27:53;23.45;67.84
62464;SHT31;48512;48.552;9.380;2023-07-24T12:30:19;23.23;68.08
62464;SHT31;48512;48.552;9.380;2023-07-24T12:32:45;23.35;67.10
62464;SHT31;48512;48.552;9.380;2023-07-24T12:35:11;23.56;67.55
62464;SHT31;48512;48.552;9.380;2023-07-24T12:37:38;23.69;65.08
62464;SHT31;48512;48.552;9.380;2023-07-24T12:40:08;23.66;64.94
62464;SHT31;48512;48.552;9.380;2023-07-24T12:42:35;23.71;65.41
62464;SHT31;48512;48.552;9.380;2023-07-24T12:45:01;23.84;66.36
62464;SHT31;48512;48.552;9.380;2023-07-24T12:47:31;24.08;66.66
62464;SHT31;48512;48.552;9.380;2023-07-24T12:49:57;24.52;64.01
62464;SHT31;48512;48.552;9.380;2023-07-24T12:52:25;24.84;62.77
62464;SHT31;48512;48.552;9.380;2023-07-24T12:54:52;25.33;62.22
62464;SHT31;48512;48.552;9.380;2023-07-24T12:57:18;25.18;62.68
62464;SHT31;48512;48.552;9.380;2023-07-24T12:59:44;25.06;62.96
62464;SHT31;48512;48.552;9.380;2023-07-24T13:02:10;24.84;62.84
62464;SHT31;48512;48.552;9.380;2023-07-24T13:04:36;24.86;62.93
62464;SHT31;48512;48.552;9.380;2023-07-24T13:07:03;26.04;59.01
62464;SHT31;48512;48.552;9.380;2023-07-24T13:09:30;26.02;59.64
62464;SHT31;48512;48.552;9.380;2023-07-24T13:11:56;25.85;58.76
62464;SHT31;48512;48.552;9.380;2023-07-24T13:14:23;26.31;58.43
62464;SHT31;48512;48.552;9.380;2023-07-24T13:16:50;26.50;56.76
62464;SHT31;48512;48.552;9.380;2023-07-24T13:19:16;26.12;56.85
62464;SHT31;48512;48.552;9.380;2023-07-24T13:21:43;26.23;58.49
62464;SHT31;48512;48.552;9.380;2023-07-24T13:24:09;25.93;56.96
62464;SHT31;48512;48.552;9.380;2023-07-24T13:26:36;25.97;57.69
62464;SHT31;48512;48.552;9.380;2023-07-24T13:29:03;25.92;58.33
62464;SHT31;48512;48.552;9.380;2023-07-24T13:31:30;25.88;58.65
62464;SHT31;48512;48.552;9.380;2023-07-24T13:33:57;25.79;58.39
62464;SHT31;48512;48.552;9.380;2023-07-24T13:36:23;25.47;56.06
62464;SHT31;48512;48.552;9.380;2023-07-24T13:38:49;25.18;56.94
62464;SHT31;48512;48.552;9.380;2023-07-24T13:41:16;25.13;56.33
62464;SHT31;48512;48.552;9.380;2023-07-24T13:43:42;25.11;56.66
62464;SHT31;48512;48.552;9.380;2023-07-24T13:46:08;25.20;57.11
62464;SHT31;48512;48.552;9.380;2023-07-24T13:48:35;25.11;57.73
62464;SHT31;48512;48.552;9.380;2023-07-24T13:51:01;25.10;56.94
62464;SHT31;48512;48.552;9.380;2023-07-24T13:53:27;24.99;58.00
62464;SHT31;48512;48.552;9.380;2023-07-24T13:55:53;25.21;56.59
62464;SHT31;48512;48.552;9.380;2023-07-24T13:58:20;24.82;57.74
62464;SHT31;48512;48.552;9.380;2023-07-24T14:00:46;24.65;60.00
62464;SHT31;48512;48.552;9.380;2023-07-24T14:03:12;24.70;59.16
62464;SHT31;48512;48.552;9.380;2023-07-24T14:05:38;24.69;59.15
62464;SHT31;48512;48.552;9.380;2023-07-24T14:08:05;24.69;58.86
62464;SHT31;48512;48.552;9.380;2023-07-24T14:10:31;24.44;60.05
62464;SHT31;48512;48.552;9.380;2023-07-24T14:12:57;24.44;60.09
62464;SHT31;48512;48.552;9.380;2023-07-24T14:15:24;24.53;60.29
62464;SHT31;48512;48.552;9.380;2023-07-24T14:17:50;24.24;61.31
62464;SHT31;48512;48.552;9.380;2023-07-24T14:20:16;24.25;61.28
62464;SHT31;48512;48.552;9.380;2023-07-24T14:22:43;23.94;62.71
62464;SHT31;48512;48.552;9.380;2023-07-24T14:25:09;23.88;63.13
62464;SHT31;48512;48.552;9.380;2023-07-24T14:27:36;23.55;64.23
62464;SHT31;48512;48.552;9.380;2023-07-24T14:30:02;23.46;65.15
62464;SHT31;48512;48.552;9.380;2023-07-24T14:32:28;23.45;66.78
62464;SHT31;48512;48.552;9.380;2023-07-24T14:34:54;23.11;68.19
62464;SHT31;48512;48.552;9.380;2023-07-24T14:37:21;22.68;69.60
62464;SHT31;48512;48.552;9.380;2023-07-24T14:39:47;22.67;69.51
62464;SHT31;48512;48.552;9.380;2023-07-24T14:42:13;22.37;71.04
62464;SHT31;48512;48.552;9.380;2023-07-24T14:44:39;22.47;69.53
62464;SHT31;48512;48.552;9.380;2023-07-24T14:47:05;22.40;70.24
62464;SHT31;48512;48.552;9.380;2023-07-24T14:49:34;22.25;71.08
62464;SHT31;48512;48.552;9.380;2023-07-24T14:52:00;21.91;72.69
62464;SHT31;48512;48.552;9.380;2023-07-24T14:54:26;21.70;73.66
62464;SHT31;48512;48.552;9.380;2023-07-24T14:56:52;21.40;78.77
62464;SHT31;48512;48.552;9.380;2023-07-24T14:59:18;21.06;79.21
62464;SHT31;48512;48.552;9.380;2023-07-24T15:01:44;21.05;78.46
62464;SHT31;48512;48.552;9.380;2023-07-24T15:04:11;21.12;78.26
62464;SHT31;48512;48.552;9.380;2023-07-24T15:06:37;21.06;77.68
62464;SHT31;48512;48.552;9.380;2023-07-24T15:09:03;20.82;77.27
62464;SHT31;48512;48.552;9.380;2023-07-24T15:11:29;20.85;78.92
62464;SHT31;48512;48.552;9.380;2023-07-24T15:13:56;20.93;78.56
62464;SHT31;48512;48.552;9.380;2023-07-24T15:16:22;20.72;78.61
62464;SHT31;48512;48.552;9.380;2023-07-24T15:18:48;20.89;78.30
62464;SHT31;48512;48.552;9.380;2023-07-24T15:21:14;20.81;78.26
62464;SHT31;48512;48.552;9.380;2023-07-24T15:23:40;20.74;77.54
62464;SHT31;48512;48.552;9.380;2023-07-24T15:26:07;21.05;76.64
62464;SHT31;48512;48.552;9.380;2023-07-24T15:28:33;21.44;75.51
62464;SHT31;48512;48.552;9.380;2023-07-24T15:30:59;21.27;76.55
62464;SHT31;48512;48.552;9.380;2023-07-24T15:33:25;21.27;76.22
62464;SHT31;48512;48.552;9.380;2023-07-24T15:35:51;21.12;76.54